createdAt,value
2019-05-09T00:00:35.274Z,10.58
2019-05-09T00:03:04.606Z,10.61
2019-05-09T00:05:33.863Z,10.61
2019-05-09T00:08:03.632Z,10.63
2019-05-09T00:10:39.449Z,10.65
2019-05-09T00:13:03.906Z,10.66
2019-05-09T00:15:33.405Z,10.65
2019-05-09T00:18:03.878Z,10.64
2019-05-09T00:20:44.825Z,10.65
2019-05-09T00:23:13.854Z,10.64
2019-05-09T00:25:43.410Z,10.64
2019-05-09T00:28:13.527Z,10.61
2019-05-09T00:31:03.549Z,10.60
2019-05-09T00:33:34.264Z,10.64
2019-05-09T00:36:04.327Z,10.64
2019-05-09T00:38:40.309Z,10.65
2019-05-09T00:41:09.487Z,10.65
2019-05-09T00:43:40.082Z,10.67
2019-05-09T00:46:28.086Z,10.64
2019-05-09T00:49:05.045Z,10.61
2019-05-09T00:51:34.310Z,10.65
2019-05-09T00:54:04.190Z,10.65
2019-05-09T00:56:33.360Z,10.67
2019-05-09T00:59:04.266Z,10.67
2019-05-09T01:01:34.184Z,10.67
2019-05-09T01:04:04.409Z,10.67
2019-05-09T01:06:34.000Z,10.66
2019-05-09T01:09:04.385Z,10.67
2019-05-09T01:11:33.483Z,10.68
2019-05-09T01:14:03.577Z,10.70
2019-05-09T01:16:33.456Z,10.70
2019-05-09T01:19:03.638Z,10.69
2019-05-09T01:21:33.452Z,10.67
2019-05-09T01:24:03.389Z,10.69
2019-05-09T01:26:33.355Z,10.68
2019-05-09T01:29:04.370Z,10.68
2019-05-09T01:31:33.592Z,10.67
2019-05-09T01:34:23.815Z,10.70
2019-05-09T01:37:08.561Z,10.72
2019-05-09T01:39:37.726Z,10.72
2019-05-09T01:42:06.861Z,10.71
2019-05-09T01:44:36.177Z,10.73
2019-05-09T01:47:05.209Z,10.72
2019-05-09T01:49:34.469Z,10.73
2019-05-09T01:52:03.743Z,10.71
2019-05-09T01:54:33.841Z,10.74
2019-05-09T01:57:03.540Z,10.71
2019-05-09T01:59:34.026Z,10.72
2019-05-09T02:02:08.722Z,10.72
2019-05-09T02:04:34.936Z,10.75
2019-05-09T02:07:04.414Z,10.75
2019-05-09T02:09:34.474Z,10.74
2019-05-09T02:12:04.286Z,10.74
2019-05-09T02:14:54.259Z,10.76
2019-05-09T02:17:35.285Z,10.75
2019-05-09T02:20:04.865Z,10.78
2019-05-09T02:22:34.754Z,10.77
2019-05-09T02:25:05.617Z,10.79
2019-05-09T02:27:34.946Z,10.79
2019-05-09T02:30:05.904Z,10.81
2019-05-09T02:32:35.348Z,10.81
2019-05-09T02:35:05.205Z,10.77
2019-05-09T02:37:34.430Z,10.74
2019-05-09T02:40:03.585Z,10.72
2019-05-09T02:42:32.631Z,10.71
2019-05-09T02:45:01.769Z,10.75
2019-05-09T02:47:31.388Z,10.70
2019-05-09T02:50:00.414Z,10.74
2019-05-09T02:52:29.430Z,10.73
2019-05-09T02:54:58.710Z,10.74
2019-05-09T02:57:29.457Z,10.71
2019-05-09T03:00:13.683Z,10.72
2019-05-09T03:03:03.223Z,10.65
2019-05-09T03:05:32.242Z,10.65
2019-05-09T03:08:01.292Z,10.60
2019-05-09T03:10:30.318Z,10.61
2019-05-09T03:12:59.678Z,10.63
2019-05-09T03:15:29.400Z,10.65
2019-05-09T03:17:59.823Z,10.64
2019-05-09T03:20:54.538Z,10.59
2019-05-09T03:23:23.636Z,10.61
2019-05-09T03:25:52.649Z,10.60
2019-05-09T03:28:38.877Z,10.55
2019-05-09T03:31:09.696Z,10.52
2019-05-09T03:33:40.521Z,10.51
2019-05-09T03:36:09.726Z,10.48
2019-05-09T03:38:38.789Z,10.45
2019-05-09T03:41:08.628Z,10.39
2019-05-09T03:43:37.865Z,10.37
2019-05-09T03:46:14.498Z,10.36
2019-05-09T03:48:47.882Z,10.32
2019-05-09T03:51:18.355Z,10.32
2019-05-09T03:53:48.409Z,10.34
2019-05-09T03:56:21.222Z,10.28
2019-05-09T03:58:50.594Z,10.31
2019-05-09T04:01:19.637Z,10.33
2019-05-09T04:03:48.724Z,10.31
2019-05-09T04:06:18.567Z,10.29
2019-05-09T04:08:48.232Z,10.33
2019-05-09T04:11:18.477Z,10.36
2019-05-09T04:13:54.010Z,10.38
2019-05-09T04:16:23.393Z,10.38
2019-05-09T04:18:52.435Z,10.40
2019-05-09T04:21:21.775Z,10.43
2019-05-09T04:23:51.192Z,10.44
2019-05-09T04:26:33.996Z,10.52
2019-05-09T04:29:03.031Z,10.60
2019-05-09T04:31:32.037Z,10.63
2019-05-09T04:34:01.062Z,10.68
2019-05-09T04:36:39.191Z,10.76
2019-05-09T04:39:12.799Z,10.85
2019-05-09T04:41:40.949Z,10.92
2019-05-09T04:44:18.308Z,11.02
2019-05-09T04:46:44.289Z,11.04
2019-05-09T04:49:13.339Z,11.07
2019-05-09T04:51:42.387Z,11.10
2019-05-09T04:54:11.396Z,11.11
2019-05-09T04:56:41.668Z,11.17
2019-05-09T04:59:10.614Z,11.18
2019-05-09T05:02:01.750Z,11.19
2019-05-09T05:04:30.766Z,11.25
2019-05-09T05:06:59.819Z,11.28
2019-05-09T05:09:28.853Z,11.30
2019-05-09T05:11:58.305Z,11.29
2019-05-09T05:14:29.986Z,11.28
2019-05-09T05:17:07.342Z,11.40
2019-05-09T05:19:31.477Z,11.48
2019-05-09T05:22:09.405Z,11.61
2019-05-09T05:24:43.818Z,11.69
2019-05-09T05:27:12.825Z,11.84
2019-05-09T05:29:41.856Z,11.94
2019-05-09T05:32:17.792Z,12.15
2019-05-09T05:35:03.812Z,12.27
2019-05-09T05:37:32.786Z,12.45
2019-05-09T05:40:01.868Z,12.79
2019-05-09T05:42:30.898Z,12.98
2019-05-09T05:44:59.942Z,13.02
2019-05-09T05:47:48.552Z,13.19
2019-05-09T05:50:17.813Z,13.31
2019-05-09T05:52:47.558Z,13.52
2019-05-09T05:55:18.274Z,13.77
2019-05-09T05:57:47.905Z,13.97
2019-05-09T06:00:18.945Z,14.00
2019-05-09T06:02:48.080Z,14.04
2019-05-09T06:05:18.725Z,14.22
2019-05-09T06:07:48.448Z,14.63
2019-05-09T06:10:18.626Z,15.30
2019-05-09T06:12:48.305Z,15.86
2019-05-09T06:15:18.231Z,16.36
2019-05-09T06:17:48.382Z,16.78
2019-05-09T06:20:18.075Z,16.96
2019-05-09T06:22:47.700Z,17.54
2019-05-09T06:25:20.619Z,17.88
2019-05-09T06:27:48.327Z,18.38
2019-05-09T06:30:28.156Z,18.65
2019-05-09T06:32:58.144Z,19.51
2019-05-09T06:35:28.229Z,19.69
2019-05-09T06:37:58.766Z,19.63
2019-05-09T06:40:28.762Z,19.85
2019-05-09T06:42:59.898Z,19.83
2019-05-09T06:45:48.654Z,19.73
2019-05-09T06:48:18.163Z,19.57
2019-05-09T06:50:48.389Z,19.17
2019-05-09T06:53:18.235Z,18.83
2019-05-09T06:55:47.677Z,18.41
2019-05-09T06:58:32.519Z,18.16
2019-05-09T07:01:19.507Z,17.83
2019-05-09T07:03:50.655Z,17.64
2019-05-09T07:06:31.289Z,17.37
2019-05-09T07:09:08.392Z,17.38
2019-05-09T07:11:38.064Z,17.71
2019-05-09T07:14:08.885Z,17.61
2019-05-09T07:16:37.895Z,17.61
2019-05-09T07:19:08.001Z,17.79
2019-05-09T07:21:55.145Z,17.88
2019-05-09T07:24:24.174Z,17.94
2019-05-09T07:26:53.188Z,17.93
2019-05-09T07:29:22.214Z,17.94
2019-05-09T07:31:57.319Z,18.06
2019-05-09T07:34:31.317Z,17.67
2019-05-09T07:37:00.345Z,17.71
2019-05-09T07:39:29.709Z,17.88
2019-05-09T07:41:58.781Z,18.08
2019-05-09T07:44:37.864Z,17.63
2019-05-09T07:47:07.557Z,18.07
2019-05-09T07:49:37.697Z,18.24
2019-05-09T07:52:10.414Z,18.33
2019-05-09T07:54:37.884Z,18.45
2019-05-09T07:57:08.521Z,18.47
2019-05-09T07:59:38.890Z,18.13
2019-05-09T08:02:08.869Z,18.41
2019-05-09T08:04:38.713Z,18.26
2019-05-09T08:07:08.497Z,17.72
2019-05-09T08:09:38.752Z,17.51
2019-05-09T08:12:08.005Z,17.61
2019-05-09T08:14:37.742Z,17.67
2019-05-09T08:17:08.623Z,17.52
2019-05-09T08:19:38.106Z,17.89
2019-05-09T08:22:07.961Z,17.84
2019-05-09T08:24:38.039Z,17.95
2019-05-09T08:27:08.528Z,18.39
2019-05-09T08:29:38.703Z,18.67
2019-05-09T08:32:07.859Z,18.70
2019-05-09T08:34:37.778Z,18.25
2019-05-09T08:37:08.196Z,18.11
2019-05-09T08:39:38.360Z,17.92
2019-05-09T08:42:08.478Z,17.96
2019-05-09T08:44:40.217Z,18.23
2019-05-09T08:47:08.911Z,18.25
2019-05-09T08:49:58.663Z,18.03
2019-05-09T08:52:28.733Z,18.12
2019-05-09T08:54:58.481Z,18.34
2019-05-09T08:57:28.812Z,18.82
2019-05-09T08:59:58.888Z,18.91
2019-05-09T09:02:28.464Z,19.46
2019-05-09T09:04:58.391Z,19.63
2019-05-09T09:07:29.790Z,19.75
2019-05-09T09:09:58.934Z,19.58
2019-05-09T09:12:34.205Z,19.69
2019-05-09T09:14:58.899Z,19.51
2019-05-09T09:17:28.144Z,19.71
2019-05-09T09:19:58.335Z,19.85
2019-05-09T09:22:28.408Z,20.15
2019-05-09T09:24:58.633Z,19.82
2019-05-09T09:27:28.196Z,20.30
2019-05-09T09:29:58.810Z,20.36
2019-05-09T09:32:28.218Z,20.28
2019-05-09T09:34:58.721Z,20.59
2019-05-09T09:37:32.761Z,20.89
2019-05-09T09:39:58.615Z,20.67
2019-05-09T09:42:28.358Z,20.50
2019-05-09T09:44:58.563Z,20.12
2019-05-09T09:47:28.538Z,20.62
2019-05-09T09:49:59.519Z,20.73
2019-05-09T09:52:30.599Z,20.78
2019-05-09T09:54:59.938Z,20.73
2019-05-09T09:57:29.059Z,20.27
2019-05-09T10:00:22.552Z,20.09
2019-05-09T10:02:51.599Z,20.13
2019-05-09T10:05:21.616Z,19.48
2019-05-09T10:07:51.744Z,19.36
2019-05-09T10:10:33.774Z,19.08
2019-05-09T10:13:04.134Z,18.87
2019-05-09T10:15:42.621Z,19.44
2019-05-09T10:18:18.310Z,19.92
2019-05-09T10:20:58.592Z,19.96
2019-05-09T10:23:27.747Z,19.72
2019-05-09T10:25:58.201Z,19.22
2019-05-09T10:28:30.009Z,19.29
2019-05-09T10:30:58.459Z,19.67
2019-05-09T10:33:28.112Z,20.18
2019-05-09T10:36:04.192Z,19.94
2019-05-09T10:38:28.165Z,20.03
2019-05-09T10:41:00.904Z,20.06
2019-05-09T10:43:48.598Z,19.94
2019-05-09T10:46:53.736Z,19.61
2019-05-09T10:49:16.455Z,19.31
2019-05-09T10:51:45.492Z,18.70
2019-05-09T10:54:14.489Z,18.69
2019-05-09T10:56:43.524Z,18.57
2019-05-09T10:59:13.071Z,18.31
2019-05-09T11:01:42.104Z,18.36
2019-05-09T11:04:11.137Z,18.31
2019-05-09T11:06:40.189Z,18.84
2019-05-09T11:09:09.975Z,18.90
2019-05-09T11:11:39.116Z,18.63
2019-05-09T11:14:08.719Z,18.57
2019-05-09T11:16:45.918Z,18.50
2019-05-09T11:19:08.919Z,18.40
2019-05-09T11:21:39.237Z,18.37
2019-05-09T11:24:08.665Z,18.69
2019-05-09T11:26:39.855Z,19.19
2019-05-09T11:29:08.481Z,19.82
2019-05-09T11:31:38.556Z,20.10
2019-05-09T11:34:08.909Z,20.50
2019-05-09T11:36:38.335Z,20.58
2019-05-09T11:39:10.603Z,20.60
2019-05-09T11:41:39.360Z,20.71
2019-05-09T11:44:08.762Z,20.49
2019-05-09T11:46:38.390Z,20.33
2019-05-09T11:49:08.302Z,19.86
2019-05-09T11:51:37.614Z,19.93
2019-05-09T11:54:09.191Z,19.78
2019-05-09T11:56:38.417Z,20.13
2019-05-09T11:59:08.007Z,20.47
2019-05-09T12:01:39.766Z,20.35
2019-05-09T12:04:08.219Z,20.56
2019-05-09T12:06:38.381Z,20.86
2019-05-09T12:09:08.972Z,20.18
2019-05-09T12:11:40.075Z,20.18
2019-05-09T12:14:09.099Z,19.95
2019-05-09T12:16:38.314Z,20.02
2019-05-09T12:19:07.406Z,20.49
2019-05-09T12:21:44.918Z,20.22
2019-05-09T12:24:09.114Z,19.93
2019-05-09T12:26:39.052Z,20.34
2019-05-09T12:29:08.792Z,20.28
2019-05-09T12:31:38.845Z,20.44
2019-05-09T12:34:09.136Z,20.71
2019-05-09T12:36:39.771Z,20.83
2019-05-09T12:39:09.229Z,21.24
2019-05-09T12:41:38.621Z,21.51
2019-05-09T12:44:08.773Z,21.48
2019-05-09T12:46:39.362Z,21.26
2019-05-09T12:49:09.044Z,21.51
2019-05-09T12:51:38.328Z,21.87
2019-05-09T12:54:08.521Z,21.55
2019-05-09T12:56:38.469Z,21.32
2019-05-09T12:59:08.774Z,21.20
2019-05-09T13:01:40.800Z,21.23
2019-05-09T13:04:09.950Z,21.01
2019-05-09T13:06:39.119Z,20.75
2019-05-09T13:09:08.516Z,20.62
2019-05-09T13:11:39.091Z,20.50
2019-05-09T13:14:10.092Z,20.52
2019-05-09T13:16:52.325Z,20.30
2019-05-09T13:19:18.485Z,20.11
2019-05-09T13:21:47.759Z,20.35
2019-05-09T13:24:19.532Z,20.95
2019-05-09T13:26:49.636Z,21.06
2019-05-09T13:29:18.664Z,21.43
2019-05-09T13:31:48.342Z,21.61
2019-05-09T13:34:18.806Z,21.71
2019-05-09T13:36:48.926Z,21.86
2019-05-09T13:39:18.415Z,21.98
2019-05-09T13:41:47.768Z,21.99
2019-05-09T13:44:18.130Z,21.78
2019-05-09T13:46:48.814Z,21.89
2019-05-09T13:49:19.332Z,22.02
2019-05-09T13:51:58.650Z,22.02
2019-05-09T13:54:19.330Z,22.03
2019-05-09T13:56:53.335Z,21.88
2019-05-09T13:59:19.102Z,21.90
2019-05-09T14:01:48.163Z,21.70
2019-05-09T14:04:17.245Z,21.47
2019-05-09T14:06:48.513Z,21.18
2019-05-09T14:09:20.004Z,21.03
2019-05-09T14:11:48.122Z,20.67
2019-05-09T14:14:18.048Z,20.65
2019-05-09T14:16:47.904Z,20.73
2019-05-09T14:19:42.555Z,20.58
2019-05-09T14:21:48.199Z,20.56
2019-05-09T14:24:19.193Z,20.59
2019-05-09T14:26:48.512Z,20.58
2019-05-09T14:29:20.672Z,20.58
2019-05-09T14:31:48.438Z,20.42
2019-05-09T14:34:19.587Z,20.34
2019-05-09T14:36:49.528Z,20.12
2019-05-09T14:39:18.820Z,19.92
2019-05-09T14:41:48.174Z,19.66
2019-05-09T14:44:18.186Z,19.58
2019-05-09T14:46:48.370Z,19.46
2019-05-09T14:49:17.772Z,19.37
2019-05-09T14:51:49.782Z,19.35
2019-05-09T14:54:17.715Z,19.37
2019-05-09T14:56:48.594Z,19.31
2019-05-09T14:59:18.651Z,19.44
2019-05-09T15:01:49.616Z,19.53
2019-05-09T15:04:19.035Z,19.58
2019-05-09T15:06:48.833Z,19.72
2019-05-09T15:09:18.358Z,19.80
2019-05-09T15:11:48.398Z,19.77
2019-05-09T15:14:18.255Z,19.73
2019-05-09T15:16:48.586Z,19.56
2019-05-09T15:19:18.234Z,19.44
2019-05-09T15:21:48.667Z,19.29
2019-05-09T15:24:19.187Z,19.07
2019-05-09T15:26:49.037Z,18.84
2019-05-09T15:29:18.154Z,18.59
2019-05-09T15:31:53.075Z,18.36
2019-05-09T15:34:18.661Z,18.12
2019-05-09T15:36:48.387Z,17.94
2019-05-09T15:39:18.370Z,17.73
2019-05-09T15:41:47.952Z,17.34
2019-05-09T15:44:18.732Z,16.53
2019-05-09T15:46:52.870Z,16.10
2019-05-09T15:49:21.842Z,15.50
2019-05-09T15:51:50.852Z,15.04
2019-05-09T15:54:20.180Z,14.37
2019-05-09T15:56:49.249Z,14.02
2019-05-09T15:59:18.554Z,13.92
2019-05-09T16:01:49.185Z,14.03
2019-05-09T16:04:18.414Z,14.37
2019-05-09T16:06:50.189Z,14.67
2019-05-09T16:09:18.535Z,15.04
2019-05-09T16:11:48.512Z,15.45
2019-05-09T16:14:18.463Z,15.88
2019-05-09T16:16:48.006Z,16.40
2019-05-09T16:19:17.069Z,16.81
2019-05-09T16:21:47.742Z,17.11
2019-05-09T16:24:18.753Z,17.19
2019-05-09T16:26:48.748Z,17.65
2019-05-09T16:29:18.439Z,17.61
2019-05-09T16:31:48.184Z,17.84
2019-05-09T16:34:17.873Z,17.85
2019-05-09T16:36:48.035Z,17.57
2019-05-09T16:39:18.093Z,17.25
2019-05-09T16:41:48.480Z,16.99
2019-05-09T16:44:18.417Z,16.82
2019-05-09T16:46:48.598Z,16.76
2019-05-09T16:49:19.927Z,16.81
2019-05-09T16:51:48.803Z,16.71
2019-05-09T16:54:18.273Z,16.66
2019-05-09T16:56:47.336Z,16.71
2019-05-09T16:59:17.834Z,16.55
2019-05-09T17:01:50.097Z,16.59
2019-05-09T17:04:19.192Z,16.45
2019-05-09T17:06:49.749Z,16.55
2019-05-09T17:09:18.963Z,16.52
2019-05-09T17:11:48.393Z,16.54
2019-05-09T17:14:19.348Z,16.33
2019-05-09T17:16:48.735Z,16.20
2019-05-09T17:19:19.549Z,16.17
2019-05-09T17:22:07.783Z,16.12
2019-05-09T17:24:38.228Z,15.93
2019-05-09T17:27:08.719Z,15.81
2019-05-09T17:29:38.409Z,15.79
2019-05-09T17:32:07.980Z,15.73
2019-05-09T17:34:38.103Z,15.73
2019-05-09T17:37:08.069Z,15.68
2019-05-09T17:39:38.627Z,15.64
2019-05-09T17:42:08.080Z,15.61
2019-05-09T17:44:37.118Z,15.33
2019-05-09T17:47:08.275Z,15.18
2019-05-09T17:49:37.630Z,15.05
2019-05-09T17:52:07.557Z,14.90
2019-05-09T17:54:37.948Z,14.74
2019-05-09T17:57:08.038Z,14.37
2019-05-09T17:59:39.181Z,14.31
2019-05-09T18:02:08.732Z,14.23
2019-05-09T18:04:37.963Z,14.22
2019-05-09T18:07:08.784Z,14.08
2019-05-09T18:09:37.967Z,13.96
2019-05-09T18:12:08.275Z,13.90
2019-05-09T18:14:38.370Z,13.90
2019-05-09T18:17:07.803Z,13.82
2019-05-09T18:19:38.076Z,13.61
2019-05-09T18:22:08.213Z,13.55
2019-05-09T18:24:37.820Z,13.53
2019-05-09T18:27:07.673Z,13.49
2019-05-09T18:29:38.042Z,13.39
2019-05-09T18:32:21.439Z,13.33
2019-05-09T18:34:52.564Z,13.19
2019-05-09T18:37:21.726Z,13.05
2019-05-09T18:39:50.762Z,13.05
2019-05-09T18:42:19.805Z,12.97
2019-05-09T18:44:48.841Z,12.94
2019-05-09T18:47:18.479Z,12.86
2019-05-09T18:49:47.577Z,12.82
2019-05-09T18:52:16.593Z,12.80
2019-05-09T18:54:45.660Z,12.74
2019-05-09T18:57:14.675Z,12.69
2019-05-09T18:59:43.679Z,12.69
2019-05-09T19:02:12.726Z,12.64
2019-05-09T19:04:41.763Z,12.61
2019-05-09T19:07:22.012Z,12.55
2019-05-09T19:09:41.575Z,12.53
2019-05-09T19:12:10.612Z,12.55
2019-05-09T19:14:39.634Z,12.53
2019-05-09T19:17:30.673Z,12.53
2019-05-09T19:20:12.845Z,12.56
2019-05-09T19:22:41.876Z,12.59
2019-05-09T19:25:10.910Z,12.60
2019-05-09T19:27:39.911Z,12.59
2019-05-09T19:30:09.145Z,12.62
2019-05-09T19:32:38.198Z,12.64
2019-05-09T19:35:08.009Z,12.65
2019-05-09T19:37:37.340Z,12.62
2019-05-09T19:40:06.720Z,12.63
2019-05-09T19:42:35.734Z,12.66
2019-05-09T19:45:04.755Z,12.67
2019-05-09T19:47:33.814Z,12.67
2019-05-09T19:50:02.861Z,12.69
2019-05-09T19:52:38.361Z,12.69
2019-05-09T19:55:02.618Z,12.61
2019-05-09T19:57:31.632Z,12.64
2019-05-09T20:00:00.670Z,12.66
2019-05-09T20:02:29.693Z,12.61
2019-05-09T20:04:58.735Z,12.56
2019-05-09T20:07:27.783Z,12.56
2019-05-09T20:10:04.082Z,12.59
2019-05-09T20:12:45.907Z,12.58
2019-05-09T20:15:18.446Z,12.57
2019-05-09T20:17:47.762Z,12.53
2019-05-09T20:20:16.836Z,12.51
2019-05-09T20:22:52.831Z,12.47
2019-05-09T20:25:19.408Z,12.47
2019-05-09T20:27:49.498Z,12.46
2019-05-09T20:30:21.461Z,12.47
2019-05-09T20:32:57.999Z,12.49
2019-05-09T20:35:28.149Z,12.48
2019-05-09T20:37:58.397Z,12.47
2019-05-09T20:40:28.486Z,12.45
2019-05-09T20:42:58.517Z,12.45
2019-05-09T20:45:30.223Z,12.52
2019-05-09T20:48:00.593Z,12.52
2019-05-09T20:50:29.838Z,12.52
2019-05-09T20:53:08.988Z,12.53
2019-05-09T20:55:30.620Z,12.55
2019-05-09T20:57:59.873Z,12.54
2019-05-09T21:00:29.108Z,12.55
2019-05-09T21:02:58.385Z,12.50
2019-05-09T21:05:28.429Z,12.47
2019-05-09T21:07:58.113Z,12.44
2019-05-09T21:10:28.451Z,12.34
2019-05-09T21:12:58.134Z,12.43
2019-05-09T21:15:28.191Z,12.42
2019-05-09T21:17:58.176Z,12.47
2019-05-09T21:20:28.199Z,12.41
2019-05-09T21:22:58.634Z,12.44
2019-05-09T21:25:33.040Z,12.45
2019-05-09T21:28:00.170Z,12.45
2019-05-09T21:30:29.405Z,12.50
2019-05-09T21:32:58.916Z,12.55
2019-05-09T21:35:29.223Z,12.51
2019-05-09T21:37:58.810Z,12.59
2019-05-09T21:40:28.681Z,12.67
2019-05-09T21:42:58.749Z,12.67
2019-05-09T21:45:28.803Z,12.70
2019-05-09T21:47:58.803Z,12.69
2019-05-09T21:50:28.841Z,12.69
2019-05-09T21:52:58.834Z,12.67
2019-05-09T21:55:28.881Z,12.68
2019-05-09T21:57:58.877Z,12.65
2019-05-09T22:00:34.071Z,12.60
2019-05-09T22:03:03.176Z,12.56
2019-05-09T22:05:32.508Z,12.51
2019-05-09T22:08:01.543Z,12.51
2019-05-09T22:10:30.556Z,12.47
2019-05-09T22:12:59.594Z,12.46
2019-05-09T22:15:29.076Z,12.48
2019-05-09T22:17:59.046Z,12.45
2019-05-09T22:20:29.026Z,12.41
2019-05-09T22:22:59.117Z,12.41
2019-05-09T22:25:29.063Z,12.41
2019-05-09T22:27:59.108Z,12.41
2019-05-09T22:30:29.286Z,12.39
2019-05-09T22:32:59.140Z,12.45
2019-05-09T22:35:29.142Z,12.45
2019-05-09T22:37:59.166Z,12.49
2019-05-09T22:40:28.204Z,12.49
2019-05-09T22:42:57.223Z,12.42
2019-05-09T22:45:26.300Z,12.41
2019-05-09T22:47:55.315Z,12.40
2019-05-09T22:50:24.356Z,12.42
2019-05-09T22:52:53.367Z,12.44
2019-05-09T22:55:22.411Z,12.43
2019-05-09T22:57:51.425Z,12.44
2019-05-09T23:00:20.464Z,12.41
2019-05-09T23:02:49.480Z,12.39
2019-05-09T23:05:18.498Z,12.34
2019-05-09T23:07:47.546Z,12.30
2019-05-09T23:10:16.550Z,12.24
2019-05-09T23:12:45.612Z,12.20
2019-05-09T23:15:16.518Z,12.13
2019-05-09T23:17:45.662Z,12.09
2019-05-09T23:20:46.251Z,12.04
2019-05-09T23:23:26.050Z,11.99
2019-05-09T23:25:55.395Z,11.89
2019-05-09T23:28:25.206Z,11.82
2019-05-09T23:30:56.272Z,11.74
2019-05-09T23:33:27.646Z,11.64
2019-05-09T23:35:56.778Z,11.57
2019-05-09T23:38:25.825Z,11.45
2019-05-09T23:40:54.855Z,11.37
2019-05-09T23:43:24.206Z,11.27
2019-05-09T23:45:53.315Z,11.21
2019-05-09T23:48:22.307Z,11.10
2019-05-09T23:50:51.260Z,11.02
2019-05-09T23:53:31.547Z,10.94
2019-05-09T23:56:18.318Z,10.88
2019-05-09T23:59:05.273Z,10.80
